Ana Sayfa
METAR-TAF:

METAR-TAF

Havaalanları :

Bordj Badji Mokhtar, Cezayir

Enlem: 21-22-30N, Boylam: 000-55-26E, yükseklik: 396 m

Güncel hava durumu gözlemi

Rapor saat 14:00 UTC de 29 dakika önce yapıldı.
Rüzgar kuzeybatıdan 4 kt
Sıcaklık 45°C
Basınç 1006 hPa
Görüş mesafesi 10 km veya daha fazla
1500 m altında bulut yok ve kümülonimbus yok

METAR: DATM 251400Z 32004KT CAVOK 45/// Q1006

Saat: 15:29 (14:29 UTC)

Tahmin

Rapor saat 11:00 UTC de 3 saat ve 29 dakika önce yapıldı.
Ayın 25'si saat 12 UTC'den ayın 25'si saat 21 UTC'ye kadar geçerli Tahmin
Rüzgar güneybatıdan 14 kt
Görüş mesafesi: 6000 m

TAF: DATM 251100Z 2512/2521 22014KT 6000 NSC

4.000'den fazla havaalanı için hava durumu gözlemleri ve tahminleri (METAR ve TAF raporları).

Kullanılabilir istasyonlar harita üzerinde sarı ve kırmızı noktalarla gösterilir.

İstasyonun adını görmek için fareyi noktanın üzerinde gezdirin.

Sonrasında hava gözlem ve tahminlerini görmek için tıklayın.

Haritayı değiştirmek için: yaklaştırmak için siyah artı işaretli yeşil düğmeye ve uzaklaştırmak için de eksi işaretli düğmeye hızla tıklayın; bitişik haritalar için yeşil okları kullanın.


METAR-TAF: